sensor_id;sensor_type;location;lat;lon;timestamp;pressure;altitude;pressure_sealevel;temperature;humidity
59608;BME280;45426;44.726;10.390;2022-11-10T00:01:49;101015.13;;;14.62;100.00
59608;BME280;45426;44.726;10.390;2022-11-10T00:04:14;101017.38;;;14.72;100.00
59608;BME280;45426;44.726;10.390;2022-11-10T00:06:39;101025.28;;;14.62;100.00
59608;BME280;45426;44.726;10.390;2022-11-10T00:09:05;101016.63;;;14.60;100.00
59608;BME280;45426;44.726;10.390;2022-11-10T00:11:31;101009.28;;;14.76;100.00
59608;BME280;45426;44.726;10.390;2022-11-10T00:13:57;101001.56;;;14.53;100.00
59608;BME280;45426;44.726;10.390;2022-11-10T00:16:41;101003.59;;;14.69;100.00
59608;BME280;45426;44.726;10.390;2022-11-10T00:19:27;101003.59;;;14.69;100.00
59608;BME280;45426;44.726;10.390;2022-11-10T00:21:53;101006.22;;;14.65;100.00
59608;BME280;45426;44.726;10.390;2022-11-10T00:24:19;100999.53;;;14.63;100.00
59608;BME280;45426;44.726;10.390;2022-11-10T00:26:45;100995.19;;;14.62;100.00
59608;BME280;45426;44.726;10.390;2022-11-10T00:29:10;100990.19;;;14.39;100.00
59608;BME280;45426;44.726;10.390;2022-11-10T00:31:37;100997.13;;;14.61;100.00
59608;BME280;45426;44.726;10.390;2022-11-10T00:34:02;101004.19;;;14.50;100.00
59608;BME280;45426;44.726;10.390;2022-11-10T00:36:28;100998.38;;;14.64;100.00
59608;BME280;45426;44.726;10.390;2022-11-10T00:38:54;101001.13;;;14.39;100.00
59608;BME280;45426;44.726;10.390;2022-11-10T00:41:19;101014.00;;;14.02;100.00
59608;BME280;45426;44.726;10.390;2022-11-10T00:43:45;101013.19;;;14.50;100.00
59608;BME280;45426;44.726;10.390;2022-11-10T00:46:10;101018.78;;;14.66;100.00
59608;BME280;45426;44.726;10.390;2022-11-10T00:48:36;101012.38;;;14.62;100.00
59608;BME280;45426;44.726;10.390;2022-11-10T00:51:01;101012.03;;;14.64;100.00
59608;BME280;45426;44.726;10.390;2022-11-10T00:53:27;101012.72;;;14.61;100.00
59608;BME280;45426;44.726;10.390;2022-11-10T00:55:52;101008.16;;;14.52;100.00
59608;BME280;45426;44.726;10.390;2022-11-10T00:58:17;101009.78;;;14.53;100.00
59608;BME280;45426;44.726;10.390;2022-11-10T01:00:43;101007.13;;;14.69;100.00
59608;BME280;45426;44.726;10.390;2022-11-10T01:03:13;101004.75;;;14.68;100.00
59608;BME280;45426;44.726;10.390;2022-11-10T01:05:39;101002.25;;;14.50;100.00
59608;BME280;45426;44.726;10.390;2022-11-10T01:08:05;100998.38;;;14.51;100.00
59608;BME280;45426;44.726;10.390;2022-11-10T01:10:30;101004.31;;;14.29;100.00
59608;BME280;45426;44.726;10.390;2022-11-10T01:12:56;101008.91;;;14.12;100.00
59608;BME280;45426;44.726;10.390;2022-11-10T01:15:21;101008.88;;;14.62;100.00
59608;BME280;45426;44.726;10.390;2022-11-10T01:17:47;101018.78;;;14.42;100.00
59608;BME280;45426;44.726;10.390;2022-11-10T01:20:12;101025.97;;;14.22;100.00
59608;BME280;45426;44.726;10.390;2022-11-10T01:22:38;101035.09;;;14.26;100.00
59608;BME280;45426;44.726;10.390;2022-11-10T01:25:06;101034.16;;;14.46;100.00
59608;BME280;45426;44.726;10.390;2022-11-10T01:27:31;101030.75;;;14.37;100.00
59608;BME280;45426;44.726;10.390;2022-11-10T01:29:57;101020.72;;;14.41;100.00
59608;BME280;45426;44.726;10.390;2022-11-10T01:32:22;101010.78;;;14.49;100.00
59608;BME280;45426;44.726;10.390;2022-11-10T01:34:48;101017.88;;;14.50;100.00
59608;BME280;45426;44.726;10.390;2022-11-10T01:37:13;101015.94;;;14.63;100.00
59608;BME280;45426;44.726;10.390;2022-11-10T01:39:38;101016.03;;;14.42;100.00
59608;BME280;45426;44.726;10.390;2022-11-10T01:42:05;101010.03;;;14.24;100.00
59608;BME280;45426;44.726;10.390;2022-11-10T01:44:30;101006.81;;;13.97;100.00
59608;BME280;45426;44.726;10.390;2022-11-10T01:46:56;101019.34;;;13.73;100.00
59608;BME280;45426;44.726;10.390;2022-11-10T01:49:23;101012.28;;;14.46;100.00
59608;BME280;45426;44.726;10.390;2022-11-10T01:51:57;101008.41;;;14.47;100.00
59608;BME280;45426;44.726;10.390;2022-11-10T01:54:27;101007.31;;;14.24;100.00
59608;BME280;45426;44.726;10.390;2022-11-10T01:56:57;100999.41;;;14.34;100.00
59608;BME280;45426;44.726;10.390;2022-11-10T01:59:26;101004.19;;;14.37;100.00
59608;BME280;45426;44.726;10.390;2022-11-10T02:01:57;100998.06;;;14.41;100.00
59608;BME280;45426;44.726;10.390;2022-11-10T02:04:26;100992.44;;;14.49;100.00
59608;BME280;45426;44.726;10.390;2022-11-10T02:06:52;100993.16;;;14.34;100.00
59608;BME280;45426;44.726;10.390;2022-11-10T02:09:18;100996.81;;;14.26;100.00
59608;BME280;45426;44.726;10.390;2022-11-10T02:11:44;100995.28;;;14.53;100.00
59608;BME280;45426;44.726;10.390;2022-11-10T02:14:10;100984.72;;;14.39;100.00
59608;BME280;45426;44.726;10.390;2022-11-10T02:16:36;100989.75;;;14.25;100.00
59608;BME280;45426;44.726;10.390;2022-11-10T02:19:36;100983.25;;;14.29;100.00
59608;BME280;45426;44.726;10.390;2022-11-10T02:22:03;100982.47;;;13.79;100.00
59608;BME280;45426;44.726;10.390;2022-11-10T02:24:28;100978.16;;;14.03;100.00
59608;BME280;45426;44.726;10.390;2022-11-10T02:26:55;100971.88;;;14.03;100.00
59608;BME280;45426;44.726;10.390;2022-11-10T02:29:21;100982.88;;;14.43;100.00
59608;BME280;45426;44.726;10.390;2022-11-10T02:31:48;100988.63;;;14.26;100.00
59608;BME280;45426;44.726;10.390;2022-11-10T02:34:14;101001.19;;;14.55;100.00
59608;BME280;45426;44.726;10.390;2022-11-10T02:36:39;101013.88;;;14.23;100.00
59608;BME280;45426;44.726;10.390;2022-11-10T02:39:05;101021.16;;;14.43;100.00
59608;BME280;45426;44.726;10.390;2022-11-10T02:41:30;101023.00;;;14.27;100.00
59608;BME280;45426;44.726;10.390;2022-11-10T02:43:56;101027.09;;;14.45;100.00
59608;BME280;45426;44.726;10.390;2022-11-10T02:46:22;101030.50;;;14.54;100.00
59608;BME280;45426;44.726;10.390;2022-11-10T02:48:47;101025.38;;;14.28;100.00
59608;BME280;45426;44.726;10.390;2022-11-10T02:51:13;101033.47;;;14.37;100.00
59608;BME280;45426;44.726;10.390;2022-11-10T02:53:38;101041.66;;;14.49;100.00
59608;BME280;45426;44.726;10.390;2022-11-10T02:56:04;101043.97;;;14.35;100.00
59608;BME280;45426;44.726;10.390;2022-11-10T02:58:30;101036.56;;;14.48;100.00
59608;BME280;45426;44.726;10.390;2022-11-10T03:00:55;101030.63;;;14.21;100.00
59608;BME280;45426;44.726;10.390;2022-11-10T03:03:20;101032.13;;;14.31;100.00
59608;BME280;45426;44.726;10.390;2022-11-10T03:05:58;101035.19;;;14.29;100.00
59608;BME280;45426;44.726;10.390;2022-11-10T03:08:24;101035.72;;;14.47;100.00
59608;BME280;45426;44.726;10.390;2022-11-10T03:10:53;101030.97;;;14.44;100.00
59608;BME280;45426;44.726;10.390;2022-11-10T03:13:18;101028.91;;;14.29;100.00
59608;BME280;45426;44.726;10.390;2022-11-10T03:15:46;101037.78;;;13.89;100.00
59608;BME280;45426;44.726;10.390;2022-11-10T03:18:12;101028.47;;;14.39;100.00
59608;BME280;45426;44.726;10.390;2022-11-10T03:20:37;101037.34;;;14.48;100.00
59608;BME280;45426;44.726;10.390;2022-11-10T03:23:03;101041.00;;;14.65;100.00
59608;BME280;45426;44.726;10.390;2022-11-10T03:25:29;101031.41;;;14.34;100.00
59608;BME280;45426;44.726;10.390;2022-11-10T03:27:55;101039.41;;;14.39;100.00
59608;BME280;45426;44.726;10.390;2022-11-10T03:30:20;101050.56;;;14.22;100.00
59608;BME280;45426;44.726;10.390;2022-11-10T03:32:46;101047.16;;;14.37;100.00
59608;BME280;45426;44.726;10.390;2022-11-10T03:35:11;101049.66;;;14.67;100.00
59608;BME280;45426;44.726;10.390;2022-11-10T03:37:40;101044.31;;;14.46;100.00
59608;BME280;45426;44.726;10.390;2022-11-10T03:40:06;101050.28;;;14.88;100.00
59608;BME280;45426;44.726;10.390;2022-11-10T03:42:32;101054.97;;;14.51;100.00
59608;BME280;45426;44.726;10.390;2022-11-10T03:44:57;101062.06;;;14.52;100.00
59608;BME280;45426;44.726;10.390;2022-11-10T03:47:23;101067.88;;;14.50;100.00
59608;BME280;45426;44.726;10.390;2022-11-10T03:49:48;101075.38;;;14.66;100.00
59608;BME280;45426;44.726;10.390;2022-11-10T03:52:14;101075.72;;;14.52;100.00
59608;BME280;45426;44.726;10.390;2022-11-10T03:54:40;101065.22;;;14.79;100.00
59608;BME280;45426;44.726;10.390;2022-11-10T03:57:05;101066.28;;;14.62;100.00
59608;BME280;45426;44.726;10.390;2022-11-10T03:59:31;101081.97;;;14.52;100.00
59608;BME280;45426;44.726;10.390;2022-11-10T04:01:56;101085.63;;;14.56;100.00
59608;BME280;45426;44.726;10.390;2022-11-10T04:04:22;101092.06;;;13.90;100.00
59608;BME280;45426;44.726;10.390;2022-11-10T04:07:08;101099.88;;;14.50;100.00
59608;BME280;45426;44.726;10.390;2022-11-10T04:09:54;101102.94;;;14.48;100.00
59608;BME280;45426;44.726;10.390;2022-11-10T04:12:19;101109.09;;;14.45;100.00
59608;BME280;45426;44.726;10.390;2022-11-10T04:15:04;101103.97;;;14.56;100.00
59608;BME280;45426;44.726;10.390;2022-11-10T04:17:48;101102.06;;;14.69;100.00
59608;BME280;45426;44.726;10.390;2022-11-10T04:20:14;101105.91;;;14.55;100.00
59608;BME280;45426;44.726;10.390;2022-11-10T04:22:40;101108.06;;;14.37;100.00
59608;BME280;45426;44.726;10.390;2022-11-10T04:25:24;101118.75;;;14.30;100.00
59608;BME280;45426;44.726;10.390;2022-11-10T04:27:49;101114.56;;;14.45;100.00
59608;BME280;45426;44.726;10.390;2022-11-10T04:30:14;101116.56;;;14.57;100.00
59608;BME280;45426;44.726;10.390;2022-11-10T04:32:40;101118.69;;;14.64;100.00
59608;BME280;45426;44.726;10.390;2022-11-10T04:35:05;101126.44;;;14.62;100.00
59608;BME280;45426;44.726;10.390;2022-11-10T04:37:31;101123.69;;;14.37;100.00
59608;BME280;45426;44.726;10.390;2022-11-10T04:39:56;101115.38;;;14.58;100.00
59608;BME280;45426;44.726;10.390;2022-11-10T04:42:21;101109.56;;;14.35;100.00
59608;BME280;45426;44.726;10.390;2022-11-10T04:44:47;101119.78;;;14.38;100.00
59608;BME280;45426;44.726;10.390;2022-11-10T04:47:12;101124.81;;;14.48;100.00
59608;BME280;45426;44.726;10.390;2022-11-10T04:49:38;101121.75;;;14.62;100.00
59608;BME280;45426;44.726;10.390;2022-11-10T04:52:03;101114.00;;;14.52;100.00
59608;BME280;45426;44.726;10.390;2022-11-10T04:54:29;101123.94;;;14.69;100.00
59608;BME280;45426;44.726;10.390;2022-11-10T04:56:54;101118.91;;;14.71;100.00
59608;BME280;45426;44.726;10.390;2022-11-10T04:59:19;101131.31;;;14.56;100.00
59608;BME280;45426;44.726;10.390;2022-11-10T05:01:45;101142.16;;;14.77;100.00
59608;BME280;45426;44.726;10.390;2022-11-10T05:04:10;101132.72;;;14.74;100.00
59608;BME280;45426;44.726;10.390;2022-11-10T05:06:35;101140.34;;;14.69;100.00
59608;BME280;45426;44.726;10.390;2022-11-10T05:09:01;101136.13;;;14.59;100.00
59608;BME280;45426;44.726;10.390;2022-11-10T05:11:26;101146.03;;;14.51;100.00
59608;BME280;45426;44.726;10.390;2022-11-10T05:13:52;101144.41;;;14.50;100.00
59608;BME280;45426;44.726;10.390;2022-11-10T05:16:17;101151.56;;;14.30;100.00
59608;BME280;45426;44.726;10.390;2022-11-10T05:18:42;101159.75;;;14.30;100.00
59608;BME280;45426;44.726;10.390;2022-11-10T05:21:08;101169.34;;;14.49;100.00
59608;BME280;45426;44.726;10.390;2022-11-10T05:23:33;101160.28;;;14.57;100.00
59608;BME280;45426;44.726;10.390;2022-11-10T05:26:03;101153.97;;;14.56;100.00
59608;BME280;45426;44.726;10.390;2022-11-10T05:28:28;101163.31;;;14.43;100.00
59608;BME280;45426;44.726;10.390;2022-11-10T05:30:53;101167.88;;;14.39;100.00
59608;BME280;45426;44.726;10.390;2022-11-10T05:33:19;101166.56;;;14.58;100.00
59608;BME280;45426;44.726;10.390;2022-11-10T05:35:44;101164.72;;;14.62;100.00
59608;BME280;45426;44.726;10.390;2022-11-10T05:38:10;101176.41;;;14.37;100.00
59608;BME280;45426;44.726;10.390;2022-11-10T05:40:35;101169.94;;;14.42;100.00
59608;BME280;45426;44.726;10.390;2022-11-10T05:43:00;101182.25;;;14.48;100.00
59608;BME280;45426;44.726;10.390;2022-11-10T05:45:27;101181.97;;;14.29;100.00
59608;BME280;45426;44.726;10.390;2022-11-10T05:47:53;101190.28;;;14.32;100.00
59608;BME280;45426;44.726;10.390;2022-11-10T05:50:20;101195.16;;;14.27;100.00
59608;BME280;45426;44.726;10.390;2022-11-10T05:52:52;101192.72;;;14.46;100.00
59608;BME280;45426;44.726;10.390;2022-11-10T05:55:21;101193.59;;;14.26;100.00
59608;BME280;45426;44.726;10.390;2022-11-10T05:57:48;101196.78;;;14.28;100.00
59608;BME280;45426;44.726;10.390;2022-11-10T06:00:16;101205.69;;;14.37;100.00
59608;BME280;45426;44.726;10.390;2022-11-10T06:02:42;101210.69;;;14.35;100.00
59608;BME280;45426;44.726;10.390;2022-11-10T06:05:09;101212.25;;;14.24;100.00
59608;BME280;45426;44.726;10.390;2022-11-10T06:07:34;101224.16;;;14.07;100.00
59608;BME280;45426;44.726;10.390;2022-11-10T06:10:00;101218.41;;;14.21;100.00
59608;BME280;45426;44.726;10.390;2022-11-10T06:12:25;101217.03;;;14.27;100.00
59608;BME280;45426;44.726;10.390;2022-11-10T06:14:57;101233.44;;;14.27;100.00
59608;BME280;45426;44.726;10.390;2022-11-10T06:17:26;101227.22;;;14.39;100.00
59608;BME280;45426;44.726;10.390;2022-11-10T06:19:51;101238.09;;;14.26;100.00
59608;BME280;45426;44.726;10.390;2022-11-10T06:22:17;101252.94;;;14.25;100.00
59608;BME280;45426;44.726;10.390;2022-11-10T06:24:43;101260.19;;;14.21;100.00
59608;BME280;45426;44.726;10.390;2022-11-10T06:27:08;101263.47;;;14.14;100.00
59608;BME280;45426;44.726;10.390;2022-11-10T06:29:34;101265.31;;;14.23;100.00
59608;BME280;45426;44.726;10.390;2022-11-10T06:31:59;101262.91;;;14.21;100.00
59608;BME280;45426;44.726;10.390;2022-11-10T06:34:25;101263.97;;;14.29;100.00
59608;BME280;45426;44.726;10.390;2022-11-10T06:36:50;101267.59;;;14.21;100.00
59608;BME280;45426;44.726;10.390;2022-11-10T06:39:16;101272.22;;;14.41;100.00
59608;BME280;45426;44.726;10.390;2022-11-10T06:41:41;101291.78;;;14.31;100.00
59608;BME280;45426;44.726;10.390;2022-11-10T06:44:06;101283.44;;;14.27;100.00
59608;BME280;45426;44.726;10.390;2022-11-10T06:46:32;101285.00;;;14.16;100.00
59608;BME280;45426;44.726;10.390;2022-11-10T06:48:57;101293.53;;;14.14;100.00
59608;BME280;45426;44.726;10.390;2022-11-10T06:51:23;101304.31;;;14.11;100.00
59608;BME280;45426;44.726;10.390;2022-11-10T06:53:48;101299.47;;;14.16;100.00
59608;BME280;45426;44.726;10.390;2022-11-10T06:56:13;101296.59;;;14.46;100.00
59608;BME280;45426;44.726;10.390;2022-11-10T06:58:39;101299.84;;;14.27;100.00
59608;BME280;45426;44.726;10.390;2022-11-10T07:01:04;101302.28;;;14.41;100.00
59608;BME280;45426;44.726;10.390;2022-11-10T07:03:30;101304.63;;;14.30;100.00
59608;BME280;45426;44.726;10.390;2022-11-10T07:05:56;101315.50;;;14.39;100.00
59608;BME280;45426;44.726;10.390;2022-11-10T07:08:22;101313.50;;;14.61;100.00
59608;BME280;45426;44.726;10.390;2022-11-10T07:10:52;101317.25;;;14.56;100.00
59608;BME280;45426;44.726;10.390;2022-11-10T07:13:18;101321.00;;;14.51;100.00
59608;BME280;45426;44.726;10.390;2022-11-10T07:15:44;101321.72;;;14.61;100.00
59608;BME280;45426;44.726;10.390;2022-11-10T07:18:09;101332.03;;;14.43;100.00
59608;BME280;45426;44.726;10.390;2022-11-10T07:20:34;101329.47;;;14.59;100.00
59608;BME280;45426;44.726;10.390;2022-11-10T07:23:02;101335.00;;;14.50;100.00
59608;BME280;45426;44.726;10.390;2022-11-10T07:25:30;101340.47;;;14.50;100.00
59608;BME280;45426;44.726;10.390;2022-11-10T07:28:00;101350.91;;;14.35;100.00
59608;BME280;45426;44.726;10.390;2022-11-10T07:30:26;101351.25;;;14.13;100.00
59608;BME280;45426;44.726;10.390;2022-11-10T07:35:27;101363.31;;;14.33;100.00
59608;BME280;45426;44.726;10.390;2022-11-10T07:38:00;101363.28;;;14.54;100.00
59608;BME280;45426;44.726;10.390;2022-11-10T07:40:26;101367.75;;;14.59;100.00
59608;BME280;45426;44.726;10.390;2022-11-10T07:42:51;101375.56;;;14.69;100.00
59608;BME280;45426;44.726;10.390;2022-11-10T07:45:16;101378.50;;;14.64;100.00
59608;BME280;45426;44.726;10.390;2022-11-10T07:47:42;101371.66;;;14.70;100.00
59608;BME280;45426;44.726;10.390;2022-11-10T07:50:08;101378.09;;;14.74;100.00
59608;BME280;45426;44.726;10.390;2022-11-10T07:52:33;101376.91;;;14.63;100.00
59608;BME280;45426;44.726;10.390;2022-11-10T07:54:59;101386.09;;;14.58;100.00
59608;BME280;45426;44.726;10.390;2022-11-10T07:57:24;101390.22;;;14.43;100.00
59608;BME280;45426;44.726;10.390;2022-11-10T07:59:50;101390.72;;;14.66;100.00
59608;BME280;45426;44.726;10.390;2022-11-10T08:02:15;101389.81;;;14.53;100.00
59608;BME280;45426;44.726;10.390;2022-11-10T08:04:40;101397.00;;;14.79;100.00
59608;BME280;45426;44.726;10.390;2022-11-10T08:07:06;101404.06;;;14.80;100.00
59608;BME280;45426;44.726;10.390;2022-11-10T08:09:31;101411.03;;;14.78;100.00
59608;BME280;45426;44.726;10.390;2022-11-10T08:11:57;101411.16;;;14.60;100.00
59608;BME280;45426;44.726;10.390;2022-11-10T08:14:22;101405.69;;;14.39;100.00
59608;BME280;45426;44.726;10.390;2022-11-10T08:16:48;101407.44;;;14.65;100.00
59608;BME280;45426;44.726;10.390;2022-11-10T08:19:14;101411.69;;;14.11;100.00
59608;BME280;45426;44.726;10.390;2022-11-10T08:21:40;101406.75;;;14.05;100.00
59608;BME280;45426;44.726;10.390;2022-11-10T08:24:05;101402.00;;;13.93;100.00
59608;BME280;45426;44.726;10.390;2022-11-10T08:26:31;101414.88;;;14.13;100.00
59608;BME280;45426;44.726;10.390;2022-11-10T08:28:57;101409.66;;;13.78;100.00
59608;BME280;45426;44.726;10.390;2022-11-10T08:31:22;101418.22;;;13.59;100.00
59608;BME280;45426;44.726;10.390;2022-11-10T08:33:48;101411.69;;;14.11;100.00
59608;BME280;45426;44.726;10.390;2022-11-10T08:36:13;101403.44;;;14.41;100.00
59608;BME280;45426;44.726;10.390;2022-11-10T08:38:39;101416.03;;;14.12;100.00
59608;BME280;45426;44.726;10.390;2022-11-10T08:41:04;101410.63;;;14.25;100.00
59608;BME280;45426;44.726;10.390;2022-11-10T08:43:29;101418.88;;;14.79;100.00
59608;BME280;45426;44.726;10.390;2022-11-10T08:45:55;101418.47;;;14.89;100.00
59608;BME280;45426;44.726;10.390;2022-11-10T08:48:21;101426.47;;;14.94;100.00
59608;BME280;45426;44.726;10.390;2022-11-10T08:50:47;101428.97;;;14.87;100.00
59608;BME280;45426;44.726;10.390;2022-11-10T08:53:18;101432.81;;;15.20;100.00
59608;BME280;45426;44.726;10.390;2022-11-10T08:55:45;101434.03;;;15.10;100.00
59608;BME280;45426;44.726;10.390;2022-11-10T08:58:13;101443.66;;;15.28;100.00
59608;BME280;45426;44.726;10.390;2022-11-10T09:00:38;101454.75;;;14.99;100.00
59608;BME280;45426;44.726;10.390;2022-11-10T09:03:15;101442.31;;;14.89;100.00
59608;BME280;45426;44.726;10.390;2022-11-10T09:05:41;101439.66;;;14.59;100.00
59608;BME280;45426;44.726;10.390;2022-11-10T09:08:08;101442.38;;;15.26;100.00
59608;BME280;45426;44.726;10.390;2022-11-10T09:10:35;101446.50;;;15.20;100.00
59608;BME280;45426;44.726;10.390;2022-11-10T09:13:02;101449.16;;;15.41;100.00
59608;BME280;45426;44.726;10.390;2022-11-10T09:15:29;101448.72;;;15.63;100.00
59608;BME280;45426;44.726;10.390;2022-11-10T09:17:59;101453.78;;;15.74;100.00
59608;BME280;45426;44.726;10.390;2022-11-10T09:20:28;101456.75;;;15.81;100.00
59608;BME280;45426;44.726;10.390;2022-11-10T09:22:54;101457.66;;;15.85;100.00
59608;BME280;45426;44.726;10.390;2022-11-10T09:25:20;101471.03;;;15.41;100.00
59608;BME280;45426;44.726;10.390;2022-11-10T09:27:46;101468.56;;;15.72;100.00
59608;BME280;45426;44.726;10.390;2022-11-10T09:30:12;101472.28;;;16.01;100.00
59608;BME280;45426;44.726;10.390;2022-11-10T09:32:37;101469.53;;;15.89;100.00
59608;BME280;45426;44.726;10.390;2022-11-10T09:35:04;101473.63;;;15.95;100.00
59608;BME280;45426;44.726;10.390;2022-11-10T09:37:29;101475.59;;;16.07;100.00
59608;BME280;45426;44.726;10.390;2022-11-10T09:39:55;101474.25;;;16.41;100.00
59608;BME280;45426;44.726;10.390;2022-11-10T09:42:33;101476.28;;;16.57;100.00
59608;BME280;45426;44.726;10.390;2022-11-10T09:45:10;101476.81;;;16.62;100.00
59608;BME280;45426;44.726;10.390;2022-11-10T09:48:03;101486.53;;;16.19;100.00
59608;BME280;45426;44.726;10.390;2022-11-10T09:50:36;101491.16;;;16.56;100.00
59608;BME280;45426;44.726;10.390;2022-11-10T09:53:05;101490.75;;;16.69;100.00
59608;BME280;45426;44.726;10.390;2022-11-10T09:55:42;101491.06;;;16.80;100.00
59608;BME280;45426;44.726;10.390;2022-11-10T09:58:11;101491.84;;;16.53;100.00
59608;BME280;45426;44.726;10.390;2022-11-10T10:00:40;101496.13;;;16.78;100.00
59608;BME280;45426;44.726;10.390;2022-11-10T10:03:11;101505.44;;;16.49;100.00
59608;BME280;45426;44.726;10.390;2022-11-10T10:11:33;101525.03;;;16.10;100.00
59608;BME280;45426;44.726;10.390;2022-11-10T10:14:10;101523.41;;;16.34;100.00
59608;BME280;45426;44.726;10.390;2022-11-10T10:19:41;101527.75;;;16.23;100.00
59608;BME280;45426;44.726;10.390;2022-11-10T10:25:00;101527.19;;;16.29;100.00
59608;BME280;45426;44.726;10.390;2022-11-10T10:27:30;101528.22;;;15.88;100.00
59608;BME280;45426;44.726;10.390;2022-11-10T10:29:58;101529.88;;;15.68;100.00
59608;BME280;45426;44.726;10.390;2022-11-10T10:32:25;101530.72;;;15.93;100.00
59608;BME280;45426;44.726;10.390;2022-11-10T10:34:50;101527.66;;;16.07;100.00
59608;BME280;45426;44.726;10.390;2022-11-10T10:39:49;101539.63;;;16.02;100.00
59608;BME280;45426;44.726;10.390;2022-11-10T10:42:38;101534.03;;;15.99;100.00
59608;BME280;45426;44.726;10.390;2022-11-10T10:45:21;101541.25;;;15.79;100.00
59608;BME280;45426;44.726;10.390;2022-11-10T10:47:50;101532.47;;;15.98;100.00
59608;BME280;45426;44.726;10.390;2022-11-10T10:53:14;101526.84;;;16.31;100.00
59608;BME280;45426;44.726;10.390;2022-11-10T10:55:45;101529.72;;;16.35;100.00
59608;BME280;45426;44.726;10.390;2022-11-10T10:58:53;101541.47;;;16.35;100.00
59608;BME280;45426;44.726;10.390;2022-11-10T11:03:50;101546.25;;;16.38;100.00
59608;BME280;45426;44.726;10.390;2022-11-10T11:06:20;101546.97;;;16.35;100.00
59608;BME280;45426;44.726;10.390;2022-11-10T11:11:43;101553.25;;;16.11;100.00
59608;BME280;45426;44.726;10.390;2022-11-10T11:14:25;101552.66;;;16.42;100.00
59608;BME280;45426;44.726;10.390;2022-11-10T11:19:25;101563.63;;;16.18;100.00
59608;BME280;45426;44.726;10.390;2022-11-10T11:26:58;101566.38;;;16.42;100.00
59608;BME280;45426;44.726;10.390;2022-11-10T11:30:17;101563.53;;;16.26;100.00
59608;BME280;45426;44.726;10.390;2022-11-10T11:40:35;101579.63;;;16.16;100.00
59608;BME280;45426;44.726;10.390;2022-11-10T11:45:58;101581.22;;;16.04;100.00
59608;BME280;45426;44.726;10.390;2022-11-10T11:51:11;101567.28;;;16.46;100.00
59608;BME280;45426;44.726;10.390;2022-11-10T11:56:27;101579.06;;;16.35;100.00
59608;BME280;45426;44.726;10.390;2022-11-10T12:02:22;101572.31;;;16.44;100.00
59608;BME280;45426;44.726;10.390;2022-11-10T12:05:20;101576.56;;;16.29;100.00
59608;BME280;45426;44.726;10.390;2022-11-10T12:13:27;101586.41;;;16.96;100.00
59608;BME280;45426;44.726;10.390;2022-11-10T12:15:58;101584.84;;;16.82;100.00
59608;BME280;45426;44.726;10.390;2022-11-10T12:18:31;101582.44;;;16.93;100.00
59608;BME280;45426;44.726;10.390;2022-11-10T12:24:02;101595.59;;;16.87;100.00
59608;BME280;45426;44.726;10.390;2022-11-10T12:26:42;101594.56;;;16.55;100.00
59608;BME280;45426;44.726;10.390;2022-11-10T12:31:52;101601.19;;;16.79;100.00
59608;BME280;45426;44.726;10.390;2022-11-10T12:34:29;101601.31;;;16.82;100.00
59608;BME280;45426;44.726;10.390;2022-11-10T12:36:58;101604.75;;;16.92;100.00
59608;BME280;45426;44.726;10.390;2022-11-10T12:39:45;101605.69;;;16.83;100.00
59608;BME280;45426;44.726;10.390;2022-11-10T12:42:17;101603.72;;;16.84;100.00
59608;BME280;45426;44.726;10.390;2022-11-10T12:44:56;101596.88;;;16.41;100.00
59608;BME280;45426;44.726;10.390;2022-11-10T12:47:27;101597.88;;;15.87;100.00
59608;BME280;45426;44.726;10.390;2022-11-10T12:52:58;101614.50;;;16.27;100.00
59608;BME280;45426;44.726;10.390;2022-11-10T12:55:38;101605.53;;;16.55;100.00
59608;BME280;45426;44.726;10.390;2022-11-10T12:58:06;101612.53;;;16.53;100.00
59608;BME280;45426;44.726;10.390;2022-11-10T13:00:40;101608.41;;;16.34;100.00
59608;BME280;45426;44.726;10.390;2022-11-10T13:03:13;101600.72;;;16.77;100.00
59608;BME280;45426;44.726;10.390;2022-11-10T13:05:40;101600.75;;;16.64;100.00
59608;BME280;45426;44.726;10.390;2022-11-10T13:08:14;101605.22;;;16.69;100.00
59608;BME280;45426;44.726;10.390;2022-11-10T13:10:50;101595.94;;;16.86;100.00
59608;BME280;45426;44.726;10.390;2022-11-10T13:13:16;101609.09;;;16.56;100.00
59608;BME280;45426;44.726;10.390;2022-11-10T13:18:08;101604.59;;;16.76;100.00
59608;BME280;45426;44.726;10.390;2022-11-10T13:23:25;101609.81;;;17.18;100.00
59608;BME280;45426;44.726;10.390;2022-11-10T13:25:55;101613.44;;;17.50;100.00
59608;BME280;45426;44.726;10.390;2022-11-10T13:34:08;101624.00;;;17.48;100.00
59608;BME280;45426;44.726;10.390;2022-11-10T13:36:46;101624.84;;;17.64;100.00
59608;BME280;45426;44.726;10.390;2022-11-10T13:44:32;101631.00;;;17.45;100.00
59608;BME280;45426;44.726;10.390;2022-11-10T13:58:32;101666.47;;;17.10;100.00
59608;BME280;45426;44.726;10.390;2022-11-10T14:06:19;101678.97;;;16.95;100.00
59608;BME280;45426;44.726;10.390;2022-11-10T14:11:42;101686.38;;;17.07;100.00
59608;BME280;45426;44.726;10.390;2022-11-10T14:17:19;101702.63;;;17.00;100.00
59608;BME280;45426;44.726;10.390;2022-11-10T14:19:46;101695.53;;;16.86;100.00
59608;BME280;45426;44.726;10.390;2022-11-10T14:22:21;101695.88;;;16.97;100.00